Van Burensburg, Illinois
Current Conditions -  °F | °C
As of 1:55 PM on Saturday 25 Oct 2014 (Local Time) from K3LF Reporting Station
Clear Clear  
Wind Chill: 76°   Ceiling: Unl
Heat Index: 76°   Visibility: 10mi
Dew Point: 54°   Wind: 5mph
Humidity: 47%   Direction: 350°N
Pressure: 30.01"   Gusts: NA
Location:  39.1009°N, 89.3067°W
Report Text: K3LF 251855Z AUTO 35004KT 10SM CLR 24/12 A3001 RMK AO2 T02420123
Loading
Personal Weather Stations






























Interactive Weather Map
Tropical Storm Tracking
New forecast layout! Learn more

10-Day Weather Forecast

Advertisements
Track Severe Weather on mobile